sensor_id;sensor_type;location;lat;lon;timestamp;P1;durP1;ratioP1;P2;durP2;ratioP2
3843;SDS011;1937;51.444;6.484;2024-03-23T00:53:55;10.53;;;2.87;;
3843;SDS011;1937;51.444;6.484;2024-03-23T00:56:22;7.00;;;3.60;;
3843;SDS011;1937;51.444;6.484;2024-03-23T00:58:49;7.00;;;3.43;;
3843;SDS011;1937;51.444;6.484;2024-03-23T01:01:15;8.93;;;3.03;;
3843;SDS011;1937;51.444;6.484;2024-03-23T01:03:42;11.00;;;3.50;;
3843;SDS011;1937;51.444;6.484;2024-03-23T01:06:07;12.87;;;3.43;;
3843;SDS011;1937;51.444;6.484;2024-03-23T01:08:34;8.03;;;2.97;;
3843;SDS011;1937;51.444;6.484;2024-03-23T01:11:00;7.70;;;3.03;;
3843;SDS011;1937;51.444;6.484;2024-03-23T01:13:29;7.93;;;3.20;;
3843;SDS011;1937;51.444;6.484;2024-03-23T01:15:55;5.17;;;2.40;;
3843;SDS011;1937;51.444;6.484;2024-03-23T01:18:23;11.73;;;3.47;;
3843;SDS011;1937;51.444;6.484;2024-03-23T01:20:49;12.37;;;3.73;;
3843;SDS011;1937;51.444;6.484;2024-03-23T01:23:16;6.90;;;3.03;;
3843;SDS011;1937;51.444;6.484;2024-03-23T01:25:41;13.73;;;3.20;;
3843;SDS011;1937;51.444;6.484;2024-03-23T01:28:08;4.80;;;2.57;;
3843;SDS011;1937;51.444;6.484;2024-03-23T01:30:35;7.17;;;2.67;;
3843;SDS011;1937;51.444;6.484;2024-03-23T01:33:02;8.93;;;2.97;;
3843;SDS011;1937;51.444;6.484;2024-03-23T01:35:28;11.27;;;3.30;;
3843;SDS011;1937;51.444;6.484;2024-03-23T01:37:55;14.07;;;3.37;;
3843;SDS011;1937;51.444;6.484;2024-03-23T01:40:20;8.70;;;2.60;;
3843;SDS011;1937;51.444;6.484;2024-03-23T01:42:56;10.60;;;2.90;;
3843;SDS011;1937;51.444;6.484;2024-03-23T01:45:22;9.80;;;2.63;;
3843;SDS011;1937;51.444;6.484;2024-03-23T01:47:51;7.90;;;3.07;;
3843;SDS011;1937;51.444;6.484;2024-03-23T01:50:17;11.07;;;2.87;;
3843;SDS011;1937;51.444;6.484;2024-03-23T01:52:44;10.80;;;3.00;;
3843;SDS011;1937;51.444;6.484;2024-03-23T01:55:10;6.10;;;2.77;;
3843;SDS011;1937;51.444;6.484;2024-03-23T01:57:37;11.80;;;2.73;;
3843;SDS011;1937;51.444;6.484;2024-03-23T02:00:03;12.07;;;3.00;;
3843;SDS011;1937;51.444;6.484;2024-03-23T02:02:31;8.00;;;2.80;;
3843;SDS011;1937;51.444;6.484;2024-03-23T02:04:58;10.97;;;3.00;;
3843;SDS011;1937;51.444;6.484;2024-03-23T02:07:24;9.40;;;2.33;;
3843;SDS011;1937;51.444;6.484;2024-03-23T02:09:50;6.90;;;2.67;;
3843;SDS011;1937;51.444;6.484;2024-03-23T02:12:17;10.63;;;2.83;;
3843;SDS011;1937;51.444;6.484;2024-03-23T02:14:43;7.43;;;2.93;;
3843;SDS011;1937;51.444;6.484;2024-03-23T02:17:09;10.00;;;3.30;;
3843;SDS011;1937;51.444;6.484;2024-03-23T02:19:35;13.03;;;3.67;;
3843;SDS011;1937;51.444;6.484;2024-03-23T02:22:04;9.77;;;2.80;;
3843;SDS011;1937;51.444;6.484;2024-03-23T02:24:31;11.47;;;3.47;;
3843;SDS011;1937;51.444;6.484;2024-03-23T02:26:59;18.10;;;3.60;;
3843;SDS011;1937;51.444;6.484;2024-03-23T02:29:24;9.40;;;3.00;;
3843;SDS011;1937;51.444;6.484;2024-03-23T02:31:51;11.40;;;3.10;;
3843;SDS011;1937;51.444;6.484;2024-03-23T02:34:17;28.00;;;4.50;;
3843;SDS011;1937;51.444;6.484;2024-03-23T02:36:43;8.23;;;2.93;;
3843;SDS011;1937;51.444;6.484;2024-03-23T02:39:09;9.03;;;2.90;;
3843;SDS011;1937;51.444;6.484;2024-03-23T02:41:38;5.57;;;3.20;;
3843;SDS011;1937;51.444;6.484;2024-03-23T02:44:03;15.67;;;3.70;;
3843;SDS011;1937;51.444;6.484;2024-03-23T02:46:30;7.40;;;3.20;;
3843;SDS011;1937;51.444;6.484;2024-03-23T02:48:56;7.33;;;2.60;;
3843;SDS011;1937;51.444;6.484;2024-03-23T02:51:22;9.83;;;3.87;;
3843;SDS011;1937;51.444;6.484;2024-03-23T02:53:48;12.70;;;3.30;;
3843;SDS011;1937;51.444;6.484;2024-03-23T02:56:15;7.60;;;3.33;;
3843;SDS011;1937;51.444;6.484;2024-03-23T02:58:43;9.50;;;3.00;;
3843;SDS011;1937;51.444;6.484;2024-03-23T03:01:09;13.03;;;4.27;;
3843;SDS011;1937;51.444;6.484;2024-03-23T03:03:35;12.90;;;3.10;;
3843;SDS011;1937;51.444;6.484;2024-03-23T03:06:02;8.80;;;2.97;;
3843;SDS011;1937;51.444;6.484;2024-03-23T03:08:28;11.90;;;3.20;;
3843;SDS011;1937;51.444;6.484;2024-03-23T03:10:55;11.33;;;3.03;;
3843;SDS011;1937;51.444;6.484;2024-03-23T03:13:21;17.83;;;4.07;;
3843;SDS011;1937;51.444;6.484;2024-03-23T03:15:49;10.13;;;3.03;;
3843;SDS011;1937;51.444;6.484;2024-03-23T03:18:14;8.37;;;3.00;;
3843;SDS011;1937;51.444;6.484;2024-03-23T03:20:41;9.10;;;4.47;;
3843;SDS011;1937;51.444;6.484;2024-03-23T03:23:07;18.47;;;4.77;;
3843;SDS011;1937;51.444;6.484;2024-03-23T03:25:34;9.73;;;3.17;;
3843;SDS011;1937;51.444;6.484;2024-03-23T03:28:00;15.53;;;4.20;;
3843;SDS011;1937;51.444;6.484;2024-03-23T03:30:27;5.90;;;3.77;;
3843;SDS011;1937;51.444;6.484;2024-03-23T03:32:54;11.83;;;3.70;;
3843;SDS011;1937;51.444;6.484;2024-03-23T03:35:21;13.20;;;3.60;;
3843;SDS011;1937;51.444;6.484;2024-03-23T03:37:46;12.73;;;4.07;;
3843;SDS011;1937;51.444;6.484;2024-03-23T03:40:13;14.13;;;3.90;;
3843;SDS011;1937;51.444;6.484;2024-03-23T03:42:40;9.07;;;4.57;;
3843;SDS011;1937;51.444;6.484;2024-03-23T03:45:06;6.33;;;3.80;;
3843;SDS011;1937;51.444;6.484;2024-03-23T03:47:32;14.93;;;3.80;;
3843;SDS011;1937;51.444;6.484;2024-03-23T03:50:00;9.97;;;4.10;;
3843;SDS011;1937;51.444;6.484;2024-03-23T03:52:26;7.37;;;3.57;;
3843;SDS011;1937;51.444;6.484;2024-03-23T03:54:55;13.97;;;4.47;;
3843;SDS011;1937;51.444;6.484;2024-03-23T03:57:27;12.33;;;4.33;;
3843;SDS011;1937;51.444;6.484;2024-03-23T03:59:54;12.43;;;6.70;;
3843;SDS011;1937;51.444;6.484;2024-03-23T04:02:19;12.33;;;4.10;;
3843;SDS011;1937;51.444;6.484;2024-03-23T04:04:46;9.50;;;4.30;;
3843;SDS011;1937;51.444;6.484;2024-03-23T04:07:13;9.90;;;4.30;;
3843;SDS011;1937;51.444;6.484;2024-03-23T04:09:40;10.40;;;4.50;;
3843;SDS011;1937;51.444;6.484;2024-03-23T04:12:06;13.00;;;4.07;;
3843;SDS011;1937;51.444;6.484;2024-03-23T04:14:33;10.20;;;4.97;;
3843;SDS011;1937;51.444;6.484;2024-03-23T04:16:58;16.27;;;4.50;;
3843;SDS011;1937;51.444;6.484;2024-03-23T04:19:25;12.67;;;4.70;;
3843;SDS011;1937;51.444;6.484;2024-03-23T04:21:51;17.10;;;5.80;;
3843;SDS011;1937;51.444;6.484;2024-03-23T04:24:19;11.63;;;5.40;;
3843;SDS011;1937;51.444;6.484;2024-03-23T04:26:46;13.97;;;5.30;;
3843;SDS011;1937;51.444;6.484;2024-03-23T04:29:12;14.47;;;4.77;;
3843;SDS011;1937;51.444;6.484;2024-03-23T04:31:38;9.10;;;4.70;;
3843;SDS011;1937;51.444;6.484;2024-03-23T04:34:05;17.53;;;5.60;;
3843;SDS011;1937;51.444;6.484;2024-03-23T04:36:30;13.60;;;5.20;;
3843;SDS011;1937;51.444;6.484;2024-03-23T04:38:58;17.30;;;6.50;;
3843;SDS011;1937;51.444;6.484;2024-03-23T04:41:27;14.70;;;6.33;;
3843;SDS011;1937;51.444;6.484;2024-03-23T04:43:54;18.50;;;7.20;;
3843;SDS011;1937;51.444;6.484;2024-03-23T04:46:20;13.37;;;5.70;;
3843;SDS011;1937;51.444;6.484;2024-03-23T04:48:47;13.17;;;5.53;;
3843;SDS011;1937;51.444;6.484;2024-03-23T04:51:19;15.00;;;4.80;;
3843;SDS011;1937;51.444;6.484;2024-03-23T04:53:47;18.37;;;5.87;;
3843;SDS011;1937;51.444;6.484;2024-03-23T04:56:14;12.53;;;4.90;;
3843;SDS011;1937;51.444;6.484;2024-03-23T04:58:42;13.60;;;5.53;;
3843;SDS011;1937;51.444;6.484;2024-03-23T05:01:08;19.73;;;5.77;;
3843;SDS011;1937;51.444;6.484;2024-03-23T05:03:35;9.60;;;5.40;;
3843;SDS011;1937;51.444;6.484;2024-03-23T05:06:00;29.17;;;6.30;;
3843;SDS011;1937;51.444;6.484;2024-03-23T05:08:27;15.07;;;5.23;;
3843;SDS011;1937;51.444;6.484;2024-03-23T05:10:52;20.47;;;6.27;;
3843;SDS011;1937;51.444;6.484;2024-03-23T05:13:19;14.10;;;5.03;;
3843;SDS011;1937;51.444;6.484;2024-03-23T05:15:51;13.37;;;6.30;;
3843;SDS011;1937;51.444;6.484;2024-03-23T05:18:18;19.87;;;5.30;;
3843;SDS011;1937;51.444;6.484;2024-03-23T05:20:44;13.70;;;5.70;;
3843;SDS011;1937;51.444;6.484;2024-03-23T05:23:11;16.37;;;5.80;;
3843;SDS011;1937;51.444;6.484;2024-03-23T05:25:36;9.43;;;5.00;;
3843;SDS011;1937;51.444;6.484;2024-03-23T05:28:03;15.10;;;6.13;;
3843;SDS011;1937;51.444;6.484;2024-03-23T05:30:29;23.67;;;6.10;;
3843;SDS011;1937;51.444;6.484;2024-03-23T05:32:57;14.30;;;5.60;;
3843;SDS011;1937;51.444;6.484;2024-03-23T05:35:22;16.80;;;5.60;;
3843;SDS011;1937;51.444;6.484;2024-03-23T05:37:49;14.43;;;6.00;;
3843;SDS011;1937;51.444;6.484;2024-03-23T05:40:16;12.00;;;5.67;;
3843;SDS011;1937;51.444;6.484;2024-03-23T05:42:41;11.87;;;5.00;;
3843;SDS011;1937;51.444;6.484;2024-03-23T05:45:08;9.50;;;4.70;;
3843;SDS011;1937;51.444;6.484;2024-03-23T05:47:34;13.90;;;5.70;;
3843;SDS011;1937;51.444;6.484;2024-03-23T05:50:02;10.40;;;5.43;;
3843;SDS011;1937;51.444;6.484;2024-03-23T05:52:28;15.80;;;5.90;;
3843;SDS011;1937;51.444;6.484;2024-03-23T05:54:54;11.07;;;5.67;;
3843;SDS011;1937;51.444;6.484;2024-03-23T05:57:20;13.37;;;5.80;;
3843;SDS011;1937;51.444;6.484;2024-03-23T05:59:47;15.27;;;6.97;;
3843;SDS011;1937;51.444;6.484;2024-03-23T06:02:12;18.17;;;6.77;;
3843;SDS011;1937;51.444;6.484;2024-03-23T06:04:39;12.33;;;6.37;;
3843;SDS011;1937;51.444;6.484;2024-03-23T06:07:06;17.47;;;6.77;;
3843;SDS011;1937;51.444;6.484;2024-03-23T06:09:38;19.53;;;6.90;;
3843;SDS011;1937;51.444;6.484;2024-03-23T06:12:04;14.07;;;5.80;;
3843;SDS011;1937;51.444;6.484;2024-03-23T06:14:31;16.10;;;7.60;;
3843;SDS011;1937;51.444;6.484;2024-03-23T06:16:58;22.13;;;9.00;;
3843;SDS011;1937;51.444;6.484;2024-03-23T06:19:24;17.30;;;7.40;;
3843;SDS011;1937;51.444;6.484;2024-03-23T06:21:52;11.20;;;6.83;;
3843;SDS011;1937;51.444;6.484;2024-03-23T06:24:21;21.20;;;8.47;;
3843;SDS011;1937;51.444;6.484;2024-03-23T06:26:46;23.57;;;8.97;;
3843;SDS011;1937;51.444;6.484;2024-03-23T06:29:13;20.07;;;7.63;;
3843;SDS011;1937;51.444;6.484;2024-03-23T06:31:39;27.40;;;8.80;;
3843;SDS011;1937;51.444;6.484;2024-03-23T06:34:05;23.67;;;8.50;;
3843;SDS011;1937;51.444;6.484;2024-03-23T06:36:31;13.73;;;8.33;;
3843;SDS011;1937;51.444;6.484;2024-03-23T06:38:57;21.67;;;9.27;;
3843;SDS011;1937;51.444;6.484;2024-03-23T06:41:26;21.83;;;9.57;;
3843;SDS011;1937;51.444;6.484;2024-03-23T06:43:54;25.67;;;8.63;;
3843;SDS011;1937;51.444;6.484;2024-03-23T06:46:20;22.90;;;8.90;;
3843;SDS011;1937;51.444;6.484;2024-03-23T06:48:46;21.93;;;8.27;;
3843;SDS011;1937;51.444;6.484;2024-03-23T06:51:13;20.30;;;7.47;;
3843;SDS011;1937;51.444;6.484;2024-03-23T06:53:38;27.93;;;9.20;;
3843;SDS011;1937;51.444;6.484;2024-03-23T06:56:05;22.17;;;8.27;;
3843;SDS011;1937;51.444;6.484;2024-03-23T06:58:33;21.50;;;9.07;;
3843;SDS011;1937;51.444;6.484;2024-03-23T07:00:59;18.10;;;8.40;;
3843;SDS011;1937;51.444;6.484;2024-03-23T07:03:25;24.17;;;8.53;;
3843;SDS011;1937;51.444;6.484;2024-03-23T07:05:52;23.70;;;10.43;;
3843;SDS011;1937;51.444;6.484;2024-03-23T07:08:17;18.73;;;9.57;;
3843;SDS011;1937;51.444;6.484;2024-03-23T07:10:47;23.40;;;9.30;;
3843;SDS011;1937;51.444;6.484;2024-03-23T07:13:13;24.43;;;10.10;;
3843;SDS011;1937;51.444;6.484;2024-03-23T07:15:40;27.00;;;9.50;;
3843;SDS011;1937;51.444;6.484;2024-03-23T07:18:06;26.03;;;8.80;;
3843;SDS011;1937;51.444;6.484;2024-03-23T07:20:33;21.43;;;8.97;;
3843;SDS011;1937;51.444;6.484;2024-03-23T07:22:59;16.70;;;8.10;;
3843;SDS011;1937;51.444;6.484;2024-03-23T07:25:25;21.30;;;9.27;;
3843;SDS011;1937;51.444;6.484;2024-03-23T07:27:53;20.20;;;9.33;;
3843;SDS011;1937;51.444;6.484;2024-03-23T07:30:19;21.20;;;8.60;;
3843;SDS011;1937;51.444;6.484;2024-03-23T07:32:46;21.73;;;7.63;;
3843;SDS011;1937;51.444;6.484;2024-03-23T07:35:13;21.70;;;7.63;;
3843;SDS011;1937;51.444;6.484;2024-03-23T07:37:39;19.90;;;8.27;;
3843;SDS011;1937;51.444;6.484;2024-03-23T07:40:07;16.23;;;8.40;;
3843;SDS011;1937;51.444;6.484;2024-03-23T07:42:34;19.30;;;8.87;;
3843;SDS011;1937;51.444;6.484;2024-03-23T07:45:00;16.30;;;7.50;;
3843;SDS011;1937;51.444;6.484;2024-03-23T07:47:26;21.13;;;7.97;;
3843;SDS011;1937;51.444;6.484;2024-03-23T07:49:53;25.83;;;8.23;;
3843;SDS011;1937;51.444;6.484;2024-03-23T07:52:20;21.07;;;8.20;;
3843;SDS011;1937;51.444;6.484;2024-03-23T07:54:46;15.90;;;7.60;;
3843;SDS011;1937;51.444;6.484;2024-03-23T07:57:13;17.53;;;7.87;;
3843;SDS011;1937;51.444;6.484;2024-03-23T07:59:38;17.60;;;6.97;;
3843;SDS011;1937;51.444;6.484;2024-03-23T08:02:06;19.70;;;7.53;;
3843;SDS011;1937;51.444;6.484;2024-03-23T08:04:31;19.73;;;6.60;;
3843;SDS011;1937;51.444;6.484;2024-03-23T08:06:59;12.57;;;6.10;;
3843;SDS011;1937;51.444;6.484;2024-03-23T08:09:25;20.43;;;6.50;;
3843;SDS011;1937;51.444;6.484;2024-03-23T08:11:51;13.07;;;5.77;;
3843;SDS011;1937;51.444;6.484;2024-03-23T08:14:17;8.70;;;5.03;;
3843;SDS011;1937;51.444;6.484;2024-03-23T08:16:44;13.37;;;4.27;;
3843;SDS011;1937;51.444;6.484;2024-03-23T08:19:13;9.00;;;3.90;;
3843;SDS011;1937;51.444;6.484;2024-03-23T08:21:40;18.63;;;4.50;;
3843;SDS011;1937;51.444;6.484;2024-03-23T08:24:07;9.63;;;3.57;;
3843;SDS011;1937;51.444;6.484;2024-03-23T08:26:34;6.87;;;3.47;;
3843;SDS011;1937;51.444;6.484;2024-03-23T08:28:59;7.67;;;2.80;;
3843;SDS011;1937;51.444;6.484;2024-03-23T08:31:26;9.63;;;2.70;;
3843;SDS011;1937;51.444;6.484;2024-03-23T08:33:52;6.40;;;3.03;;
3843;SDS011;1937;51.444;6.484;2024-03-23T08:36:19;7.20;;;2.87;;
3843;SDS011;1937;51.444;6.484;2024-03-23T08:38:44;6.20;;;3.20;;
3843;SDS011;1937;51.444;6.484;2024-03-23T08:41:13;9.77;;;3.00;;
3843;SDS011;1937;51.444;6.484;2024-03-23T08:43:39;6.27;;;3.03;;
3843;SDS011;1937;51.444;6.484;2024-03-23T08:46:06;13.17;;;4.60;;
3843;SDS011;1937;51.444;6.484;2024-03-23T08:48:33;6.17;;;3.50;;
3843;SDS011;1937;51.444;6.484;2024-03-23T08:51:01;7.23;;;4.00;;
3843;SDS011;1937;51.444;6.484;2024-03-23T08:53:27;13.07;;;4.37;;
3843;SDS011;1937;51.444;6.484;2024-03-23T08:55:54;16.90;;;4.83;;
3843;SDS011;1937;51.444;6.484;2024-03-23T08:58:21;10.83;;;4.53;;
3843;SDS011;1937;51.444;6.484;2024-03-23T09:00:49;11.00;;;3.87;;
3843;SDS011;1937;51.444;6.484;2024-03-23T09:03:15;12.87;;;5.67;;
3843;SDS011;1937;51.444;6.484;2024-03-23T09:05:41;9.60;;;4.17;;
3843;SDS011;1937;51.444;6.484;2024-03-23T09:08:07;7.67;;;4.00;;
3843;SDS011;1937;51.444;6.484;2024-03-23T09:10:35;5.93;;;3.90;;
3843;SDS011;1937;51.444;6.484;2024-03-23T09:13:02;9.07;;;3.60;;
3843;SDS011;1937;51.444;6.484;2024-03-23T09:15:30;8.23;;;3.60;;
3843;SDS011;1937;51.444;6.484;2024-03-23T09:17:56;8.03;;;4.20;;
3843;SDS011;1937;51.444;6.484;2024-03-23T09:20:25;7.07;;;3.07;;
3843;SDS011;1937;51.444;6.484;2024-03-23T09:22:50;17.77;;;4.40;;
3843;SDS011;1937;51.444;6.484;2024-03-23T09:25:17;10.53;;;3.57;;
3843;SDS011;1937;51.444;6.484;2024-03-23T09:27:43;11.47;;;3.67;;
3843;SDS011;1937;51.444;6.484;2024-03-23T09:30:12;11.83;;;2.97;;
3843;SDS011;1937;51.444;6.484;2024-03-23T09:32:40;9.40;;;2.63;;
3843;SDS011;1937;51.444;6.484;2024-03-23T09:35:08;8.43;;;2.90;;
3843;SDS011;1937;51.444;6.484;2024-03-23T09:37:34;8.80;;;3.10;;
3843;SDS011;1937;51.444;6.484;2024-03-23T09:40:01;9.07;;;2.80;;
3843;SDS011;1937;51.444;6.484;2024-03-23T09:42:27;7.80;;;2.60;;
3843;SDS011;1937;51.444;6.484;2024-03-23T09:44:54;4.10;;;2.37;;
3843;SDS011;1937;51.444;6.484;2024-03-23T09:47:22;8.43;;;2.80;;
3843;SDS011;1937;51.444;6.484;2024-03-23T09:49:54;6.00;;;2.90;;
3843;SDS011;1937;51.444;6.484;2024-03-23T09:52:19;7.03;;;3.07;;
3843;SDS011;1937;51.444;6.484;2024-03-23T09:54:46;9.53;;;2.87;;
3843;SDS011;1937;51.444;6.484;2024-03-23T09:57:12;3.33;;;2.40;;
3843;SDS011;1937;51.444;6.484;2024-03-23T09:59:38;10.00;;;3.40;;
3843;SDS011;1937;51.444;6.484;2024-03-23T10:02:04;4.83;;;2.80;;
3843;SDS011;1937;51.444;6.484;2024-03-23T10:04:38;5.83;;;2.40;;
3843;SDS011;1937;51.444;6.484;2024-03-23T10:07:11;7.07;;;2.93;;
3843;SDS011;1937;51.444;6.484;2024-03-23T10:09:39;8.80;;;2.80;;
3843;SDS011;1937;51.444;6.484;2024-03-23T10:12:08;8.20;;;2.50;;
3843;SDS011;1937;51.444;6.484;2024-03-23T10:14:37;7.90;;;2.63;;
3843;SDS011;1937;51.444;6.484;2024-03-23T10:17:11;7.13;;;2.00;;
3843;SDS011;1937;51.444;6.484;2024-03-23T10:19:40;8.53;;;2.90;;
3843;SDS011;1937;51.444;6.484;2024-03-23T10:22:07;6.20;;;2.30;;
3843;SDS011;1937;51.444;6.484;2024-03-23T10:24:36;1.97;;;1.77;;
3843;SDS011;1937;51.444;6.484;2024-03-23T10:27:01;5.40;;;2.07;;
3843;SDS011;1937;51.444;6.484;2024-03-23T10:29:28;1.60;;;1.50;;
3843;SDS011;1937;51.444;6.484;2024-03-23T10:31:53;1.60;;;1.50;;
3843;SDS011;1937;51.444;6.484;2024-03-23T10:34:33;5.23;;;1.50;;
3843;SDS011;1937;51.444;6.484;2024-03-23T10:36:59;1.30;;;1.20;;
3843;SDS011;1937;51.444;6.484;2024-03-23T10:39:29;2.80;;;1.57;;
3843;SDS011;1937;51.444;6.484;2024-03-23T10:41:58;2.10;;;1.43;;
3843;SDS011;1937;51.444;6.484;2024-03-23T10:44:27;2.30;;;1.47;;
3843;SDS011;1937;51.444;6.484;2024-03-23T10:46:54;3.23;;;2.03;;
3843;SDS011;1937;51.444;6.484;2024-03-23T10:49:25;6.20;;;2.20;;
3843;SDS011;1937;51.444;6.484;2024-03-23T10:51:51;3.60;;;2.20;;
3843;SDS011;1937;51.444;6.484;2024-03-23T10:54:18;5.53;;;2.37;;
3843;SDS011;1937;51.444;6.484;2024-03-23T10:56:46;8.20;;;2.17;;
3843;SDS011;1937;51.444;6.484;2024-03-23T10:59:18;3.80;;;2.80;;
3843;SDS011;1937;51.444;6.484;2024-03-23T11:01:53;4.70;;;2.83;;
3843;SDS011;1937;51.444;6.484;2024-03-23T11:04:30;7.20;;;2.97;;
3843;SDS011;1937;51.444;6.484;2024-03-23T11:06:57;13.37;;;3.13;;
3843;SDS011;1937;51.444;6.484;2024-03-23T11:09:39;10.60;;;3.50;;
3843;SDS011;1937;51.444;6.484;2024-03-23T11:12:24;10.00;;;4.20;;
3843;SDS011;1937;51.444;6.484;2024-03-23T11:14:59;7.40;;;3.27;;
3843;SDS011;1937;51.444;6.484;2024-03-23T11:17:27;5.83;;;2.40;;
3843;SDS011;1937;51.444;6.484;2024-03-23T11:19:54;6.60;;;3.00;;
3843;SDS011;1937;51.444;6.484;2024-03-23T11:22:40;6.90;;;2.90;;
3843;SDS011;1937;51.444;6.484;2024-03-23T11:25:15;3.47;;;2.07;;
3843;SDS011;1937;51.444;6.484;2024-03-23T11:27:42;7.90;;;2.17;;
3843;SDS011;1937;51.444;6.484;2024-03-23T11:30:15;4.70;;;1.77;;
3843;SDS011;1937;51.444;6.484;2024-03-23T11:32:42;2.80;;;1.63;;
3843;SDS011;1937;51.444;6.484;2024-03-23T11:35:09;2.60;;;1.50;;
3843;SDS011;1937;51.444;6.484;2024-03-23T11:37:35;3.23;;;1.80;;
3843;SDS011;1937;51.444;6.484;2024-03-23T11:40:16;5.53;;;2.17;;
3843;SDS011;1937;51.444;6.484;2024-03-23T11:42:43;3.67;;;1.70;;
3843;SDS011;1937;51.444;6.484;2024-03-23T11:45:11;6.40;;;1.80;;
3843;SDS011;1937;51.444;6.484;2024-03-23T11:47:39;9.40;;;1.80;;
3843;SDS011;1937;51.444;6.484;2024-03-23T11:50:06;4.67;;;2.00;;
3843;SDS011;1937;51.444;6.484;2024-03-23T11:52:32;5.37;;;2.00;;
3843;SDS011;1937;51.444;6.484;2024-03-23T11:55:04;3.20;;;1.80;;
3843;SDS011;1937;51.444;6.484;2024-03-23T11:57:33;5.33;;;2.00;;
3843;SDS011;1937;51.444;6.484;2024-03-23T12:00:00;2.23;;;1.50;;
3843;SDS011;1937;51.444;6.484;2024-03-23T12:02:25;4.07;;;2.50;;
3843;SDS011;1937;51.444;6.484;2024-03-23T12:04:54;5.17;;;2.40;;
3843;SDS011;1937;51.444;6.484;2024-03-23T12:07:20;7.90;;;2.27;;
3843;SDS011;1937;51.444;6.484;2024-03-23T12:09:47;5.17;;;2.33;;
3843;SDS011;1937;51.444;6.484;2024-03-23T12:12:28;4.67;;;2.37;;
3843;SDS011;1937;51.444;6.484;2024-03-23T12:15:01;4.20;;;2.10;;
3843;SDS011;1937;51.444;6.484;2024-03-23T12:17:27;8.17;;;2.63;;
3843;SDS011;1937;51.444;6.484;2024-03-23T12:19:55;6.20;;;2.30;;
3843;SDS011;1937;51.444;6.484;2024-03-23T12:22:21;6.63;;;2.30;;
3843;SDS011;1937;51.444;6.484;2024-03-23T12:24:48;9.20;;;2.20;;
3843;SDS011;1937;51.444;6.484;2024-03-23T12:27:13;5.00;;;2.50;;
3843;SDS011;1937;51.444;6.484;2024-03-23T12:29:40;2.60;;;1.80;;
3843;SDS011;1937;51.444;6.484;2024-03-23T12:32:06;1.60;;;1.30;;
3843;SDS011;1937;51.444;6.484;2024-03-23T12:34:33;1.30;;;1.20;;
3843;SDS011;1937;51.444;6.484;2024-03-23T12:37:00;4.20;;;1.70;;
3843;SDS011;1937;51.444;6.484;2024-03-23T12:39:27;2.17;;;1.53;;
3843;SDS011;1937;51.444;6.484;2024-03-23T12:41:52;4.23;;;1.30;;
3843;SDS011;1937;51.444;6.484;2024-03-23T12:44:19;9.63;;;1.83;;
3843;SDS011;1937;51.444;6.484;2024-03-23T12:46:45;1.60;;;1.50;;
3843;SDS011;1937;51.444;6.484;2024-03-23T12:49:12;2.50;;;1.70;;
3843;SDS011;1937;51.444;6.484;2024-03-23T12:51:38;3.50;;;2.27;;
3843;SDS011;1937;51.444;6.484;2024-03-23T12:54:06;7.40;;;2.40;;
3843;SDS011;1937;51.444;6.484;2024-03-23T12:56:32;4.90;;;2.17;;
3843;SDS011;1937;51.444;6.484;2024-03-23T12:58:59;4.90;;;2.40;;
3843;SDS011;1937;51.444;6.484;2024-03-23T13:01:24;7.13;;;2.50;;
3843;SDS011;1937;51.444;6.484;2024-03-23T13:03:51;4.50;;;2.40;;
3843;SDS011;1937;51.444;6.484;2024-03-23T13:06:17;3.67;;;2.50;;
3843;SDS011;1937;51.444;6.484;2024-03-23T13:08:44;6.20;;;2.17;;
3843;SDS011;1937;51.444;6.484;2024-03-23T13:11:11;6.90;;;3.00;;
3843;SDS011;1937;51.444;6.484;2024-03-23T13:13:39;3.57;;;1.90;;
3843;SDS011;1937;51.444;6.484;2024-03-23T13:16:04;1.90;;;1.70;;
3843;SDS011;1937;51.444;6.484;2024-03-23T13:18:32;4.17;;;1.90;;
3843;SDS011;1937;51.444;6.484;2024-03-23T13:20:58;8.13;;;1.43;;
3843;SDS011;1937;51.444;6.484;2024-03-23T13:23:24;1.10;;;1.00;;
3843;SDS011;1937;51.444;6.484;2024-03-23T13:25:50;1.10;;;1.00;;
3843;SDS011;1937;51.444;6.484;2024-03-23T13:28:19;0.80;;;0.80;;
3843;SDS011;1937;51.444;6.484;2024-03-23T13:30:51;2.73;;;1.40;;
3843;SDS011;1937;51.444;6.484;2024-03-23T13:33:18;3.20;;;1.20;;
3843;SDS011;1937;51.444;6.484;2024-03-23T13:35:50;6.03;;;1.30;;
3843;SDS011;1937;51.444;6.484;2024-03-23T13:38:16;2.77;;;1.30;;
3843;SDS011;1937;51.444;6.484;2024-03-23T13:40:49;5.03;;;1.17;;
3843;SDS011;1937;51.444;6.484;2024-03-23T13:43:16;2.00;;;1.80;;
3843;SDS011;1937;51.444;6.484;2024-03-23T13:45:44;2.63;;;1.40;;
3843;SDS011;1937;51.444;6.484;2024-03-23T13:48:11;3.47;;;2.27;;
3843;SDS011;1937;51.444;6.484;2024-03-23T13:50:37;8.20;;;1.63;;
3843;SDS011;1937;51.444;6.484;2024-03-23T13:53:03;4.03;;;2.00;;
3843;SDS011;1937;51.444;6.484;2024-03-23T13:55:29;2.10;;;1.60;;
3843;SDS011;1937;51.444;6.484;2024-03-23T13:57:56;1.47;;;1.37;;
3843;SDS011;1937;51.444;6.484;2024-03-23T14:00:23;3.83;;;2.03;;
3843;SDS011;1937;51.444;6.484;2024-03-23T14:02:49;2.57;;;1.73;;
3843;SDS011;1937;51.444;6.484;2024-03-23T14:05:15;1.80;;;1.17;;
3843;SDS011;1937;51.444;6.484;2024-03-23T14:07:42;6.30;;;1.40;;
3843;SDS011;1937;51.444;6.484;2024-03-23T14:10:08;1.43;;;1.33;;
3843;SDS011;1937;51.444;6.484;2024-03-23T14:12:35;3.93;;;2.23;;
3843;SDS011;1937;51.444;6.484;2024-03-23T14:15:03;2.10;;;1.57;;
3843;SDS011;1937;51.444;6.484;2024-03-23T14:17:33;3.17;;;1.93;;
3843;SDS011;1937;51.444;6.484;2024-03-23T14:19:58;1.77;;;1.03;;
3843;SDS011;1937;51.444;6.484;2024-03-23T14:22:26;2.30;;;1.30;;
3843;SDS011;1937;51.444;6.484;2024-03-23T14:24:52;1.53;;;1.30;;
3843;SDS011;1937;51.444;6.484;2024-03-23T14:27:18;2.20;;;1.67;;
3843;SDS011;1937;51.444;6.484;2024-03-23T14:29:45;1.83;;;1.63;;
3843;SDS011;1937;51.444;6.484;2024-03-23T14:32:12;4.30;;;1.87;;
3843;SDS011;1937;51.444;6.484;2024-03-23T14:34:39;3.73;;;2.10;;
3843;SDS011;1937;51.444;6.484;2024-03-23T14:37:05;3.63;;;2.07;;
3843;SDS011;1937;51.444;6.484;2024-03-23T14:39:31;3.20;;;1.50;;
3843;SDS011;1937;51.444;6.484;2024-03-23T14:41:59;1.90;;;1.63;;
3843;SDS011;1937;51.444;6.484;2024-03-23T14:44:25;3.83;;;2.23;;
3843;SDS011;1937;51.444;6.484;2024-03-23T14:46:51;5.67;;;2.60;;
3843;SDS011;1937;51.444;6.484;2024-03-23T14:49:17;3.87;;;2.00;;
3843;SDS011;1937;51.444;6.484;2024-03-23T14:51:45;6.20;;;2.43;;
3843;SDS011;1937;51.444;6.484;2024-03-23T14:54:11;3.80;;;2.73;;
3843;SDS011;1937;51.444;6.484;2024-03-23T14:56:38;5.43;;;2.10;;
3843;SDS011;1937;51.444;6.484;2024-03-23T14:59:03;2.30;;;1.80;;
3843;SDS011;1937;51.444;6.484;2024-03-23T15:01:31;6.53;;;1.90;;
3843;SDS011;1937;51.444;6.484;2024-03-23T15:03:57;3.53;;;1.90;;
3843;SDS011;1937;51.444;6.484;2024-03-23T15:06:23;2.10;;;1.90;;
3843;SDS011;1937;51.444;6.484;2024-03-23T15:08:50;6.60;;;2.60;;
3843;SDS011;1937;51.444;6.484;2024-03-23T15:11:17;3.77;;;1.63;;
3843;SDS011;1937;51.444;6.484;2024-03-23T15:13:44;2.70;;;1.50;;
3843;SDS011;1937;51.444;6.484;2024-03-23T15:16:16;2.43;;;1.63;;
3843;SDS011;1937;51.444;6.484;2024-03-23T15:18:42;11.03;;;1.90;;
3843;SDS011;1937;51.444;6.484;2024-03-23T15:21:09;4.87;;;1.90;;
3843;SDS011;1937;51.444;6.484;2024-03-23T15:23:36;6.43;;;2.00;;
3843;SDS011;1937;51.444;6.484;2024-03-23T15:26:04;3.33;;;1.67;;
3843;SDS011;1937;51.444;6.484;2024-03-23T15:28:31;2.93;;;1.57;;
3843;SDS011;1937;51.444;6.484;2024-03-23T15:31:06;4.10;;;1.93;;
3843;SDS011;1937;51.444;6.484;2024-03-23T15:33:33;8.07;;;1.70;;
3843;SDS011;1937;51.444;6.484;2024-03-23T15:36:00;2.67;;;1.90;;
3843;SDS011;1937;51.444;6.484;2024-03-23T15:38:25;3.00;;;2.00;;
3843;SDS011;1937;51.444;6.484;2024-03-23T15:40:52;5.17;;;1.87;;
3843;SDS011;1937;51.444;6.484;2024-03-23T15:43:19;3.50;;;1.83;;
3843;SDS011;1937;51.444;6.484;2024-03-23T15:45:53;4.90;;;2.60;;
3843;SDS011;1937;51.444;6.484;2024-03-23T15:48:19;1.80;;;1.60;;
3843;SDS011;1937;51.444;6.484;2024-03-23T15:50:50;5.33;;;1.80;;
3843;SDS011;1937;51.444;6.484;2024-03-23T15:53:17;3.40;;;2.30;;
3843;SDS011;1937;51.444;6.484;2024-03-23T15:55:44;4.63;;;1.87;;
3843;SDS011;1937;51.444;6.484;2024-03-23T15:58:09;2.70;;;1.43;;
3843;SDS011;1937;51.444;6.484;2024-03-23T16:00:37;6.77;;;1.83;;
3843;SDS011;1937;51.444;6.484;2024-03-23T16:03:03;2.20;;;1.77;;